Bellefonte, Delaware
Current Conditions -  °F | °C
As of 5:51 PM on Friday 31 Oct 2014 (Local Time) from KILG Reporting Station
Few Clouds Few Clouds  
Wind Chill: 45°   Ceiling: Unl
Heat Index: 49°   Visibility: 10mi
Dew Point: 37°   Wind: 8mph
Humidity: 64%   Direction: 40°NE
Pressure: 29.89"   Gusts: NA
Location:  39.772°N, 75.4963°W
Report Text: KILG 312151Z 04007KT 10SM FEW060 09/03 A2989 RMK AO2 SLP121 T00940028
Loading
Personal Weather Stations






























Interactive Weather Map
Tropical Storm Tracking
New forecast layout! Learn more

10-Day Weather Forecast

Advertisements
Track Severe Weather on mobile